createdAt,value
2023-04-02T00:00:40.208Z,85.71
2023-04-02T00:01:40.273Z,86.05
2023-04-02T00:02:40.316Z,86.02
2023-04-02T00:03:40.359Z,85.57
2023-04-02T00:04:40.292Z,84.84
2023-04-02T00:05:40.333Z,84.84
2023-04-02T00:06:40.648Z,85.22
2023-04-02T00:07:40.380Z,84.70
2023-04-02T00:08:40.409Z,84.74
2023-04-02T00:09:40.414Z,85.77
2023-04-02T00:10:40.473Z,84.88
2023-04-02T00:11:40.503Z,85.15
2023-04-02T00:12:40.579Z,84.74
2023-04-02T00:13:40.589Z,85.46
2023-04-02T00:14:40.638Z,85.05
2023-04-02T00:15:40.700Z,84.84
2023-04-02T00:16:40.806Z,84.74
2023-04-02T00:17:40.814Z,84.94
2023-04-02T00:18:40.873Z,85.05
2023-04-02T00:19:40.926Z,84.70
2023-04-02T00:20:40.970Z,84.59
2023-04-02T00:21:41.028Z,84.22
2023-04-02T00:22:41.033Z,84.74
2023-04-02T00:23:41.106Z,84.53
2023-04-02T00:24:41.134Z,84.33
2023-04-02T00:25:41.188Z,84.47
2023-04-02T00:26:41.184Z,84.47
2023-04-02T00:27:41.228Z,84.74
2023-04-02T00:28:41.230Z,84.27
2023-04-02T00:29:41.281Z,84.78
2023-04-02T00:30:41.285Z,84.92
2023-04-02T00:31:41.369Z,85.09
2023-04-02T00:32:41.458Z,84.74
2023-04-02T00:33:41.431Z,84.01
2023-04-02T00:34:41.455Z,83.71
2023-04-02T00:35:41.503Z,83.95
2023-04-02T00:36:41.562Z,83.85
2023-04-02T00:37:41.609Z,83.61
2023-04-02T00:38:41.680Z,83.40
2023-04-02T00:39:41.683Z,83.61
2023-04-02T00:40:41.726Z,82.95
2023-04-02T00:41:41.786Z,82.33
2023-04-02T00:42:41.794Z,82.68
2023-04-02T00:43:41.837Z,83.19
2023-04-02T00:44:41.913Z,83.23
2023-04-02T00:45:41.902Z,83.78
2023-04-02T00:46:41.930Z,84.33
2023-04-02T00:47:41.963Z,82.92
2023-04-02T00:48:42.002Z,83.23
2023-04-02T00:49:42.062Z,83.85
2023-04-02T00:50:42.131Z,83.13
2023-04-02T00:51:42.136Z,82.92
2023-04-02T00:52:42.183Z,83.44
2023-04-02T00:53:42.163Z,83.17
2023-04-02T00:54:42.154Z,83.89
2023-04-02T00:55:42.195Z,84.20
2023-04-02T00:56:42.272Z,84.16
2023-04-02T00:57:42.303Z,83.23
2023-04-02T00:58:42.351Z,83.13
2023-04-02T00:59:42.413Z,82.82
2023-04-02T01:00:42.462Z,82.98
2023-04-02T01:01:42.741Z,81.89
2023-04-02T01:02:42.589Z,83.06
2023-04-02T01:03:42.738Z,83.85
2023-04-02T01:04:42.660Z,83.27
2023-04-02T01:05:42.656Z,82.92
2023-04-02T01:06:42.650Z,83.27
2023-04-02T01:07:42.650Z,83.37
2023-04-02T01:08:42.708Z,83.20
2023-04-02T01:09:42.786Z,83.76
2023-04-02T01:10:42.832Z,84.28
2023-04-02T01:11:42.859Z,84.34
2023-04-02T01:12:42.909Z,84.03
2023-04-02T01:13:42.950Z,84.13
2023-04-02T01:14:43.020Z,84.20
2023-04-02T01:15:43.097Z,83.89
2023-04-02T01:16:43.063Z,83.37
2023-04-02T01:17:43.211Z,83.62
2023-04-02T01:18:43.077Z,83.78
2023-04-02T01:19:43.144Z,83.54
2023-04-02T01:20:43.130Z,83.06
2023-04-02T01:21:43.148Z,83.68
2023-04-02T01:22:43.182Z,83.37
2023-04-02T01:23:43.208Z,82.96
2023-04-02T01:24:43.242Z,83.93
2023-04-02T01:25:43.317Z,83.86
2023-04-02T01:26:43.355Z,84.03
2023-04-02T01:27:43.396Z,83.37
2023-04-02T01:28:43.470Z,82.96
2023-04-02T01:29:43.494Z,82.96
2023-04-02T01:30:43.580Z,83.37
2023-04-02T01:31:43.560Z,83.68
2023-04-02T01:32:43.605Z,83.17
2023-04-02T01:33:43.597Z,84.03
2023-04-02T01:34:43.614Z,84.59
2023-04-02T01:35:43.654Z,85.00
2023-04-02T01:36:43.703Z,85.27
2023-04-02T01:37:43.685Z,84.69
2023-04-02T01:38:43.727Z,84.86
2023-04-02T01:39:43.757Z,84.59
2023-04-02T01:40:43.790Z,85.00
2023-04-02T01:41:43.791Z,84.75
2023-04-02T01:42:43.834Z,85.00
2023-04-02T01:43:43.825Z,85.10
2023-04-02T01:44:43.836Z,85.04
2023-04-02T01:45:43.860Z,85.97
2023-04-02T01:46:43.982Z,85.41
2023-04-02T01:47:43.997Z,84.79
2023-04-02T01:48:43.950Z,84.69
2023-04-02T01:49:43.959Z,84.79
2023-04-02T01:50:43.945Z,84.73
2023-04-02T01:51:43.943Z,84.59
2023-04-02T01:52:43.936Z,84.89
2023-04-02T01:53:43.991Z,84.48
2023-04-02T01:54:44.028Z,84.63
2023-04-02T01:55:44.041Z,84.38
2023-04-02T01:56:44.096Z,84.28
2023-04-02T01:57:44.136Z,84.17
2023-04-02T01:58:44.189Z,83.55
2023-04-02T01:59:44.255Z,83.31
2023-04-02T02:00:44.273Z,83.45
2023-04-02T02:01:44.270Z,83.80
2023-04-02T02:02:44.363Z,84.21
2023-04-02T02:03:44.267Z,84.28
2023-04-02T02:04:44.271Z,83.65
2023-04-02T02:05:44.312Z,83.65
2023-04-02T02:06:44.381Z,83.00
2023-04-02T02:07:44.429Z,83.07
2023-04-02T02:08:44.463Z,83.73
2023-04-02T02:09:44.501Z,84.21
2023-04-02T02:10:44.557Z,83.80
2023-04-02T02:11:44.596Z,83.49
2023-04-02T02:12:44.597Z,83.42
2023-04-02T02:13:44.651Z,83.84
2023-04-02T02:14:44.671Z,83.39
2023-04-02T02:15:44.704Z,83.11
2023-04-02T02:16:44.871Z,83.32
2023-04-02T02:17:44.867Z,83.22
2023-04-02T02:18:44.789Z,83.49
2023-04-02T02:19:44.840Z,82.90
2023-04-02T02:20:44.860Z,83.11
2023-04-02T02:21:44.854Z,83.39
2023-04-02T02:22:44.888Z,83.11
2023-04-02T02:23:44.918Z,82.90
2023-04-02T02:24:44.966Z,83.32
2023-04-02T02:25:44.990Z,83.11
2023-04-02T02:26:45.004Z,82.95
2023-04-02T02:27:45.042Z,83.22
2023-04-02T02:28:45.071Z,82.39
2023-04-02T02:29:45.113Z,82.39
2023-04-02T02:30:45.169Z,82.39
2023-04-02T02:31:45.263Z,82.18
2023-04-02T02:32:45.299Z,82.29
2023-04-02T02:33:45.324Z,81.90
2023-04-02T02:34:45.349Z,81.67
2023-04-02T02:35:45.407Z,82.95
2023-04-02T02:36:45.406Z,82.90
2023-04-02T02:37:45.444Z,82.90
2023-04-02T02:38:45.502Z,82.35
2023-04-02T02:39:45.535Z,81.49
2023-04-02T02:40:45.558Z,80.70
2023-04-02T02:41:45.605Z,81.32
2023-04-02T02:42:45.651Z,81.77
2023-04-02T02:43:45.692Z,81.77
2023-04-02T02:44:45.712Z,81.98
2023-04-02T02:45:45.748Z,82.50
2023-04-02T02:46:45.751Z,81.94
2023-04-02T02:47:45.883Z,81.42
2023-04-02T02:48:45.813Z,81.35
2023-04-02T02:49:45.846Z,81.56
2023-04-02T02:50:45.880Z,81.74
2023-04-02T02:51:45.903Z,82.46
2023-04-02T02:52:45.941Z,82.95
2023-04-02T02:53:45.966Z,81.87
2023-04-02T02:54:46.016Z,81.87
2023-04-02T02:55:46.035Z,81.05
2023-04-02T02:56:46.067Z,80.94
2023-04-02T02:57:46.081Z,81.54
2023-04-02T02:58:46.118Z,82.09
2023-04-02T02:59:46.160Z,82.67
2023-04-02T03:00:46.207Z,81.95
2023-04-02T03:01:46.307Z,81.81
2023-04-02T03:02:46.364Z,81.09
2023-04-02T03:03:46.381Z,81.33
2023-04-02T03:04:46.313Z,82.26
2023-04-02T03:05:46.346Z,81.91
2023-04-02T03:06:46.380Z,81.19
2023-04-02T03:07:46.417Z,81.09
2023-04-02T03:08:46.463Z,80.81
2023-04-02T03:09:46.507Z,81.02
2023-04-02T03:10:46.528Z,80.98
2023-04-02T03:11:46.563Z,80.91
2023-04-02T03:12:46.600Z,81.33
2023-04-02T03:13:46.629Z,81.09
2023-04-02T03:14:46.655Z,80.40
2023-04-02T03:15:46.754Z,81.02
2023-04-02T03:16:46.668Z,81.29
2023-04-02T03:17:46.715Z,80.40
2023-04-02T03:18:46.749Z,80.85
2023-04-02T03:19:46.769Z,81.23
2023-04-02T03:20:46.817Z,80.91
2023-04-02T03:21:46.857Z,80.57
2023-04-02T03:22:46.874Z,80.60
2023-04-02T03:23:46.903Z,80.63
2023-04-02T03:24:46.940Z,79.70
2023-04-02T03:25:47.013Z,79.47
2023-04-02T03:26:47.009Z,80.50
2023-04-02T03:27:47.033Z,81.02
2023-04-02T03:28:47.056Z,80.26
2023-04-02T03:29:47.077Z,80.26
2023-04-02T03:30:47.106Z,79.84
2023-04-02T03:31:47.316Z,80.05
2023-04-02T03:32:47.171Z,79.74
2023-04-02T03:33:47.181Z,79.63
2023-04-02T03:34:47.221Z,79.94
2023-04-02T03:35:47.276Z,79.67
2023-04-02T03:36:47.271Z,79.74
2023-04-02T03:37:47.317Z,79.88
2023-04-02T03:38:47.340Z,80.19
2023-04-02T03:39:47.379Z,79.88
2023-04-02T03:40:47.436Z,79.91
2023-04-02T03:41:47.455Z,79.88
2023-04-02T03:42:47.484Z,80.40
2023-04-02T03:43:47.519Z,79.60
2023-04-02T03:44:47.568Z,79.08
2023-04-02T03:45:47.599Z,78.88
2023-04-02T03:46:47.664Z,78.50
2023-04-02T03:47:47.677Z,79.16
2023-04-02T03:48:47.678Z,79.36
2023-04-02T03:49:47.723Z,80.12
2023-04-02T03:50:47.751Z,80.40
2023-04-02T03:51:47.785Z,79.43
2023-04-02T03:52:47.803Z,79.88
2023-04-02T03:53:47.829Z,79.63
2023-04-02T03:54:54.196Z,79.43
2023-04-02T03:55:47.878Z,79.43
2023-04-02T03:56:47.952Z,79.53
2023-04-02T03:57:47.955Z,79.43
2023-04-02T03:58:47.989Z,79.88
2023-04-02T03:59:48.060Z,80.50
2023-04-02T04:00:48.101Z,80.50
2023-04-02T04:01:48.140Z,80.60
2023-04-02T04:02:48.190Z,80.63
2023-04-02T04:03:48.198Z,79.70
2023-04-02T04:04:48.207Z,78.98
2023-04-02T04:05:48.298Z,78.88
2023-04-02T04:06:48.292Z,79.19
2023-04-02T04:07:48.316Z,79.63
2023-04-02T04:08:48.366Z,80.15
2023-04-02T04:09:48.386Z,80.19
2023-04-02T04:10:48.459Z,81.16
2023-04-02T04:11:48.464Z,81.23
2023-04-02T04:12:48.487Z,81.02
2023-04-02T04:13:48.513Z,80.85
2023-04-02T04:14:48.548Z,80.81
2023-04-02T04:15:48.582Z,80.95
2023-04-02T04:16:48.670Z,81.26
2023-04-02T04:17:48.641Z,81.54
2023-04-02T04:18:48.662Z,80.64
2023-04-02T04:19:48.679Z,81.57
2023-04-02T04:20:48.721Z,82.03
2023-04-02T04:21:48.768Z,81.99
2023-04-02T04:22:48.782Z,81.78
2023-04-02T04:23:48.807Z,81.37
2023-04-02T04:24:48.822Z,81.12
2023-04-02T04:25:48.854Z,80.81
2023-04-02T04:26:48.894Z,80.60
2023-04-02T04:27:48.908Z,80.81
2023-04-02T04:28:48.930Z,81.16
2023-04-02T04:29:48.962Z,81.20
2023-04-02T04:30:48.986Z,81.51
2023-04-02T04:31:49.084Z,81.47
2023-04-02T04:32:49.098Z,81.57
2023-04-02T04:33:49.048Z,81.16
2023-04-02T04:34:49.065Z,80.88
2023-04-02T04:35:49.126Z,81.09
2023-04-02T04:36:49.138Z,81.05
2023-04-02T04:37:49.175Z,80.81
2023-04-02T04:38:49.199Z,80.26
2023-04-02T04:39:49.205Z,80.74
2023-04-02T04:40:49.246Z,80.57
2023-04-02T04:41:49.310Z,80.99
2023-04-02T04:42:49.338Z,80.54
2023-04-02T04:43:49.360Z,80.19
2023-04-02T04:44:49.420Z,79.67
2023-04-02T04:45:49.499Z,79.47
2023-04-02T04:46:49.525Z,79.71
2023-04-02T04:47:49.639Z,80.43
2023-04-02T04:48:49.568Z,80.33
2023-04-02T04:49:49.634Z,80.33
2023-04-02T04:50:49.653Z,80.33
2023-04-02T04:51:49.698Z,80.12
2023-04-02T04:52:49.747Z,80.22
2023-04-02T04:53:49.809Z,79.98
2023-04-02T04:54:49.854Z,79.67
2023-04-02T04:55:49.905Z,79.81
2023-04-02T04:56:50.000Z,79.81
2023-04-02T04:57:49.980Z,80.16
2023-04-02T04:58:50.013Z,80.57
2023-04-02T04:59:50.086Z,80.47
2023-04-02T05:00:50.249Z,80.12
2023-04-02T05:01:50.288Z,79.95
2023-04-02T05:02:50.262Z,80.26
2023-04-02T05:03:50.268Z,79.40
2023-04-02T05:04:50.330Z,79.50
2023-04-02T05:05:50.344Z,79.40
2023-04-02T05:06:50.369Z,78.85
2023-04-02T05:07:50.427Z,78.12
2023-04-02T05:08:50.456Z,77.98
2023-04-02T05:09:50.506Z,77.91
2023-04-02T05:10:50.566Z,78.12
2023-04-02T05:11:50.581Z,78.26
2023-04-02T05:12:50.624Z,77.91
2023-04-02T05:13:50.692Z,78.16
2023-04-02T05:14:50.735Z,78.33
2023-04-02T05:15:50.818Z,77.43
2023-04-02T05:16:50.810Z,77.43
2023-04-02T05:17:50.911Z,77.88
2023-04-02T05:18:50.900Z,77.53
2023-04-02T05:19:50.948Z,77.12
2023-04-02T05:20:51.013Z,77.50
2023-04-02T05:21:51.038Z,76.84
2023-04-02T05:22:51.043Z,76.12
2023-04-02T05:23:51.059Z,76.26
2023-04-02T05:24:51.113Z,76.40
2023-04-02T05:25:51.154Z,76.98
2023-04-02T05:26:51.165Z,76.95
2023-04-02T05:27:51.167Z,75.32
2023-04-02T05:28:51.207Z,76.36
2023-04-02T05:29:51.183Z,76.43
2023-04-02T05:30:51.183Z,75.91
2023-04-02T05:31:51.205Z,75.40
2023-04-02T05:32:51.276Z,75.74
2023-04-02T05:33:51.277Z,76.46
2023-04-02T05:34:51.276Z,76.61
2023-04-02T05:35:51.376Z,76.91
2023-04-02T05:36:51.353Z,76.88
2023-04-02T05:37:51.419Z,76.15
2023-04-02T05:38:51.490Z,75.95
2023-04-02T05:39:51.470Z,75.74
2023-04-02T05:40:51.519Z,75.40
2023-04-02T05:41:51.493Z,75.63
2023-04-02T05:42:51.573Z,75.32
2023-04-02T05:43:51.547Z,75.98
2023-04-02T05:44:51.607Z,76.61
2023-04-02T05:45:51.663Z,76.12
2023-04-02T05:46:51.775Z,76.81
2023-04-02T05:47:51.855Z,76.15
2023-04-02T05:48:51.845Z,75.95
2023-04-02T05:49:51.899Z,75.19
2023-04-02T05:50:51.900Z,74.57
2023-04-02T05:51:51.907Z,74.50
2023-04-02T05:52:51.931Z,75.15
2023-04-02T05:53:51.953Z,75.53
2023-04-02T05:54:51.987Z,75.63
2023-04-02T05:55:51.994Z,75.19
2023-04-02T05:56:52.114Z,74.77
2023-04-02T05:58:10.458Z,75.19
2023-04-02T05:58:52.093Z,75.19
2023-04-02T05:59:52.080Z,74.53
2023-04-02T06:00:52.080Z,74.81
2023-04-02T06:01:52.106Z,74.67
2023-04-02T06:02:52.189Z,74.67
2023-04-02T06:03:52.159Z,74.46
2023-04-02T06:04:52.137Z,74.71
2023-04-02T06:05:52.144Z,74.81
2023-04-02T06:06:52.173Z,74.81
2023-04-02T06:07:52.219Z,74.60
2023-04-02T06:08:52.263Z,74.63
2023-04-02T06:09:52.279Z,74.91
2023-04-02T06:10:52.278Z,74.71
2023-04-02T06:11:52.345Z,74.71
2023-04-02T06:12:52.343Z,74.81
2023-04-02T06:13:52.342Z,74.40
2023-04-02T06:14:52.340Z,74.22
2023-04-02T06:15:52.408Z,73.81
2023-04-02T06:16:52.499Z,73.39
2023-04-02T06:17:52.504Z,73.81
2023-04-02T06:18:52.496Z,73.43
2023-04-02T06:19:52.501Z,73.84
2023-04-02T06:20:52.518Z,73.43
2023-04-02T06:21:52.543Z,73.29
2023-04-02T06:22:52.563Z,73.19
2023-04-02T06:23:52.607Z,73.05
2023-04-02T06:24:52.589Z,73.54
2023-04-02T06:25:53.955Z,73.12
2023-04-02T06:26:52.681Z,73.15
2023-04-02T06:27:52.680Z,73.84
2023-04-02T06:28:52.764Z,73.43
2023-04-02T06:29:52.817Z,73.36
2023-04-02T06:30:52.830Z,73.67
2023-04-02T06:31:52.804Z,73.46
2023-04-02T06:32:52.978Z,73.43
2023-04-02T06:33:52.928Z,72.88
2023-04-02T06:34:52.967Z,73.05
2023-04-02T06:35:52.997Z,73.15
2023-04-02T06:36:53.008Z,73.77
2023-04-02T06:37:53.037Z,73.77
2023-04-02T06:38:53.053Z,73.67
2023-04-02T06:39:53.082Z,72.74
2023-04-02T06:40:53.105Z,73.36
2023-04-02T06:41:53.114Z,73.25
2023-04-02T06:42:53.140Z,73.60
2023-04-02T06:43:53.127Z,73.67
2023-04-02T06:44:53.186Z,73.43
2023-04-02T06:45:53.221Z,72.94
2023-04-02T06:46:53.230Z,73.02
2023-04-02T06:47:53.263Z,73.02
2023-04-02T06:48:53.206Z,72.78
2023-04-02T06:49:53.276Z,72.29
2023-04-02T06:50:53.259Z,72.26
2023-04-02T06:51:53.279Z,72.05
2023-04-02T06:52:53.258Z,72.16
2023-04-02T06:53:53.242Z,72.36
2023-04-02T06:54:53.501Z,72.50
2023-04-02T06:55:53.250Z,72.29
2023-04-02T06:56:53.310Z,72.71
2023-04-02T06:57:53.279Z,72.39
2023-04-02T06:58:53.350Z,72.71
2023-04-02T06:59:53.430Z,72.60
2023-04-02T07:00:53.442Z,73.02
2023-04-02T07:01:53.479Z,72.29
2023-04-02T07:02:53.520Z,72.08
2023-04-02T07:03:53.529Z,71.91
2023-04-02T07:04:53.557Z,72.22
2023-04-02T07:05:53.591Z,72.39
2023-04-02T07:06:53.652Z,72.29
2023-04-02T07:07:53.697Z,71.98
2023-04-02T07:08:53.750Z,71.57
2023-04-02T07:09:53.802Z,71.67
2023-04-02T07:10:53.884Z,71.50
2023-04-02T07:11:53.908Z,71.57
2023-04-02T07:12:53.927Z,71.64
2023-04-02T07:13:53.974Z,70.81
2023-04-02T07:14:54.008Z,71.33
2023-04-02T07:15:54.049Z,71.12
2023-04-02T07:16:54.052Z,71.12
2023-04-02T07:17:54.061Z,71.36
2023-04-02T07:18:54.086Z,70.74
2023-04-02T07:19:54.106Z,70.61
2023-04-02T07:20:54.144Z,70.22
2023-04-02T07:21:54.202Z,70.01
2023-04-02T07:22:54.264Z,69.84
2023-04-02T07:23:54.271Z,69.81
2023-04-02T07:24:54.356Z,70.43
2023-04-02T07:25:54.379Z,69.57
2023-04-02T07:26:54.418Z,69.78
2023-04-02T07:27:54.442Z,69.12
2023-04-02T07:28:54.512Z,69.40
2023-04-02T07:29:54.577Z,69.02
2023-04-02T07:30:54.555Z,68.71
2023-04-02T07:31:54.638Z,68.43
2023-04-02T07:32:54.647Z,68.71
2023-04-02T07:33:54.674Z,68.23
2023-04-02T07:34:54.697Z,68.19
2023-04-02T07:35:54.825Z,68.06
2023-04-02T07:36:54.749Z,68.61
2023-04-02T07:37:54.725Z,67.27
2023-04-02T07:38:54.790Z,67.82
2023-04-02T07:39:54.778Z,68.43
2023-04-02T07:40:54.817Z,67.91
2023-04-02T07:41:54.822Z,67.91
2023-04-02T07:42:54.874Z,67.82
2023-04-02T07:43:54.888Z,68.43
2023-04-02T07:44:54.932Z,69.16
2023-04-02T07:45:54.928Z,68.95
2023-04-02T07:46:55.010Z,69.26
2023-04-02T07:47:54.993Z,68.43
2023-04-02T07:48:55.025Z,68.43
2023-04-02T07:49:55.636Z,67.99
2023-04-02T07:50:55.112Z,67.50
2023-04-02T07:51:55.221Z,67.61
2023-04-02T07:52:55.212Z,68.33
2023-04-02T07:53:55.301Z,67.50
2023-04-02T07:54:55.323Z,67.58
2023-04-02T07:55:55.349Z,67.40
2023-04-02T07:56:55.483Z,67.50
2023-04-02T07:57:55.393Z,67.40
2023-04-02T07:58:55.500Z,67.61
2023-04-02T07:59:55.441Z,67.47
2023-04-02T08:00:55.564Z,68.09
2023-04-02T08:01:55.620Z,67.85
2023-04-02T08:02:55.717Z,66.51
2023-04-02T08:03:55.713Z,66.54
2023-04-02T08:04:55.673Z,66.00
2023-04-02T08:05:55.728Z,65.79
2023-04-02T08:06:55.756Z,66.72
2023-04-02T08:07:55.783Z,66.93
2023-04-02T08:08:55.803Z,66.30
2023-04-02T08:09:55.901Z,65.86
2023-04-02T08:10:55.913Z,65.76
2023-04-02T08:11:55.866Z,66.04
2023-04-02T08:12:55.934Z,65.62
2023-04-02T08:13:55.947Z,66.30
2023-04-02T08:14:55.989Z,66.41
2023-04-02T08:15:56.002Z,66.48
2023-04-02T08:16:56.488Z,66.10
2023-04-02T08:17:56.127Z,66.64
2023-04-02T08:18:56.109Z,66.99
2023-04-02T08:19:56.146Z,67.13
2023-04-02T08:20:56.120Z,66.24
2023-04-02T08:21:56.166Z,65.80
2023-04-02T08:22:56.229Z,65.39
2023-04-02T08:23:57.466Z,65.11
2023-04-02T08:24:56.366Z,65.94
2023-04-02T08:25:56.312Z,65.97
2023-04-02T08:26:56.391Z,66.00
2023-04-02T08:27:56.406Z,65.82
2023-04-02T08:28:56.595Z,66.44
2023-04-02T08:29:56.551Z,66.72
2023-04-02T08:30:56.595Z,65.97
2023-04-02T08:31:56.678Z,66.24
2023-04-02T08:32:56.795Z,65.00
2023-04-02T08:33:56.733Z,65.03
2023-04-02T08:34:56.744Z,65.37
2023-04-02T08:35:56.846Z,65.06
2023-04-02T08:36:56.837Z,64.62
2023-04-02T08:37:56.890Z,64.93
2023-04-02T08:38:57.469Z,65.14
2023-04-02T08:39:56.886Z,65.55
2023-04-02T08:40:57.199Z,65.03
2023-04-02T08:41:57.080Z,64.83
2023-04-02T08:42:56.999Z,64.93
2023-04-02T08:43:57.059Z,65.06
2023-04-02T08:44:57.286Z,65.97
2023-04-02T08:45:57.093Z,65.03
2023-04-02T08:46:57.159Z,64.59
2023-04-02T08:47:57.260Z,64.39
2023-04-02T08:48:57.281Z,63.84
2023-04-02T08:49:57.465Z,63.64
2023-04-02T08:50:57.328Z,63.53
2023-04-02T08:51:57.453Z,63.12
2023-04-02T08:52:57.484Z,63.43
2023-04-02T08:53:57.447Z,63.01
2023-04-02T08:54:57.559Z,63.19
2023-04-02T08:55:57.631Z,63.27
2023-04-02T08:56:58.246Z,62.71
2023-04-02T08:57:57.607Z,63.67
2023-04-02T08:58:57.705Z,64.15
2023-04-02T08:59:57.692Z,63.92
2023-04-02T09:00:57.737Z,63.19
2023-04-02T09:01:57.868Z,62.29
2023-04-02T09:02:57.741Z,63.53
2023-04-02T09:03:57.832Z,63.32
2023-04-02T09:04:57.881Z,63.22
2023-04-02T09:05:57.811Z,63.32
2023-04-02T09:06:57.861Z,63.84
2023-04-02T09:07:57.833Z,62.81
2023-04-02T09:08:57.949Z,62.50
2023-04-02T09:09:57.926Z,62.37
2023-04-02T09:10:58.002Z,62.99
2023-04-02T09:11:58.073Z,61.82
2023-04-02T09:12:58.106Z,61.52
2023-04-02T09:13:58.148Z,62.29
2023-04-02T09:14:58.111Z,62.96
2023-04-02T09:15:58.249Z,62.00
2023-04-02T09:16:58.221Z,61.72
2023-04-02T09:17:59.660Z,62.31
2023-04-02T09:18:58.264Z,61.66
2023-04-02T09:19:58.298Z,61.66
2023-04-02T09:20:58.333Z,61.33
2023-04-02T09:21:58.424Z,61.05
2023-04-02T09:22:58.450Z,61.25
2023-04-02T09:23:58.476Z,62.59
2023-04-02T09:24:58.536Z,61.07
2023-04-02T09:26:04.612Z,61.69
2023-04-02T09:26:58.605Z,61.49
2023-04-02T09:27:58.538Z,61.38
2023-04-02T09:28:58.565Z,62.00
2023-04-02T09:29:58.594Z,62.41
2023-04-02T09:30:58.587Z,62.00
2023-04-02T09:31:58.726Z,62.28
2023-04-02T09:32:58.719Z,60.47
2023-04-02T09:33:58.713Z,60.50
2023-04-02T09:34:58.707Z,60.78
2023-04-02T09:35:58.751Z,59.45
2023-04-02T09:36:58.772Z,60.22
2023-04-02T09:37:58.780Z,61.98
2023-04-02T09:38:58.833Z,61.22
2023-04-02T09:39:58.909Z,61.74
2023-04-02T09:40:58.882Z,60.81
2023-04-02T09:42:05.518Z,60.40
2023-04-02T09:42:58.909Z,60.61
2023-04-02T09:43:58.979Z,62.13
2023-04-02T09:44:59.046Z,62.00
2023-04-02T09:45:59.118Z,62.15
2023-04-02T09:46:59.231Z,60.55
2023-04-02T09:47:59.198Z,59.93
2023-04-02T09:48:59.132Z,60.24
2023-04-02T09:49:59.159Z,60.45
2023-04-02T09:50:59.192Z,60.83
2023-04-02T09:51:59.238Z,59.16
2023-04-02T09:52:59.304Z,59.57
2023-04-02T09:53:59.300Z,59.47
2023-04-02T09:54:59.313Z,59.47
2023-04-02T09:55:59.389Z,60.29
2023-04-02T09:56:59.475Z,59.06
2023-04-02T09:58:01.535Z,60.19
2023-04-02T09:58:59.507Z,60.91
2023-04-02T09:59:59.537Z,60.31
2023-04-02T10:00:59.607Z,58.28
2023-04-02T10:01:59.635Z,58.28
2023-04-02T10:02:59.687Z,58.92
2023-04-02T10:03:59.853Z,58.41
2023-04-02T10:04:59.730Z,58.49
2023-04-02T10:05:59.806Z,57.67
2023-04-02T10:06:59.889Z,57.95
2023-04-02T10:07:59.945Z,58.80
2023-04-02T10:08:59.913Z,59.59
2023-04-02T10:09:59.912Z,59.39
2023-04-02T10:10:59.930Z,59.29
2023-04-02T10:11:59.950Z,59.24
2023-04-02T10:12:59.992Z,60.02
2023-04-02T10:13:59.971Z,61.30
2023-04-02T10:14:59.993Z,59.73
2023-04-02T10:16:00.068Z,59.75
2023-04-02T10:17:00.081Z,60.06
2023-04-02T10:18:00.142Z,59.78
2023-04-02T10:19:00.127Z,60.17
2023-04-02T10:20:00.168Z,60.24
2023-04-02T10:21:00.121Z,59.98
2023-04-02T10:22:00.165Z,58.67
2023-04-02T10:23:00.159Z,58.87
2023-04-02T10:24:00.223Z,58.87
2023-04-02T10:25:00.236Z,59.11
2023-04-02T10:26:00.236Z,58.83
2023-04-02T10:27:00.273Z,59.34
2023-04-02T10:28:00.347Z,59.63
2023-04-02T10:29:00.388Z,59.93
2023-04-02T10:30:01.107Z,59.73
2023-04-02T10:31:00.501Z,60.17
2023-04-02T10:32:00.476Z,60.27
2023-04-02T10:33:00.511Z,60.58
2023-04-02T10:34:00.575Z,60.86
2023-04-02T10:35:00.545Z,61.21
2023-04-02T10:36:00.579Z,60.39
2023-04-02T10:37:00.644Z,59.98
2023-04-02T10:38:00.715Z,59.67
2023-04-02T10:39:00.715Z,59.75
2023-04-02T10:40:00.757Z,59.95
2023-04-02T10:41:00.760Z,59.59
2023-04-02T10:42:00.757Z,57.95
2023-04-02T10:43:00.775Z,57.95
2023-04-02T10:44:09.492Z,57.67
2023-04-02T10:45:00.762Z,58.69
2023-04-02T10:46:00.795Z,58.56
2023-04-02T10:47:00.756Z,58.77
2023-04-02T10:48:00.795Z,59.18
2023-04-02T10:49:00.776Z,58.56
2023-04-02T10:50:00.808Z,58.36
2023-04-02T10:51:00.855Z,58.87
2023-04-02T10:52:01.816Z,57.67
2023-04-02T10:53:00.900Z,57.98
2023-04-02T10:54:00.980Z,57.93
2023-04-02T10:55:00.932Z,58.31
2023-04-02T10:56:01.620Z,58.51
2023-04-02T10:57:01.004Z,58.11
2023-04-02T10:58:00.927Z,58.78
2023-04-02T10:59:00.945Z,59.70
2023-04-02T11:00:01.008Z,59.77
2023-04-02T11:01:01.052Z,59.44
2023-04-02T11:02:01.189Z,59.41
2023-04-02T11:03:01.210Z,58.77
2023-04-02T11:04:01.154Z,57.84
2023-04-02T11:05:01.995Z,57.59
2023-04-02T11:06:01.176Z,57.26
2023-04-02T11:07:13.216Z,57.98
2023-04-02T11:08:01.203Z,58.31
2023-04-02T11:09:01.217Z,58.41
2023-04-02T11:10:01.298Z,58.00
2023-04-02T11:11:03.292Z,58.39
2023-04-02T11:12:01.262Z,58.39
2023-04-02T11:13:01.398Z,58.23
2023-04-02T11:14:01.424Z,57.61
2023-04-02T11:15:01.522Z,57.15
2023-04-02T11:16:01.367Z,57.46
2023-04-02T11:17:01.409Z,59.41
2023-04-02T11:18:01.496Z,57.98
2023-04-02T11:19:01.488Z,58.13
2023-04-02T11:20:01.480Z,58.83
2023-04-02T11:21:01.505Z,59.82
2023-04-02T11:22:04.348Z,58.12
2023-04-02T11:23:01.507Z,57.94
2023-04-02T11:24:01.525Z,54.51
2023-04-02T11:25:01.549Z,55.00
2023-04-02T11:26:01.564Z,54.31
2023-04-02T11:27:01.599Z,53.64
2023-04-02T11:28:01.588Z,55.23
2023-04-02T11:29:01.653Z,55.56
2023-04-02T11:30:01.697Z,53.59
2023-04-02T11:31:01.789Z,52.62
2023-04-02T11:32:01.765Z,54.41
2023-04-02T11:33:01.803Z,54.95
2023-04-02T11:34:01.821Z,55.79
2023-04-02T11:35:07.130Z,55.84
2023-04-02T11:36:01.913Z,54.74
2023-04-02T11:37:01.937Z,55.36
2023-04-02T11:38:01.939Z,55.84
2023-04-02T11:39:14.733Z,54.85
2023-04-02T11:40:02.030Z,55.02
2023-04-02T11:41:02.078Z,55.79
2023-04-02T11:42:02.128Z,54.33
2023-04-02T11:43:02.172Z,54.67
2023-04-02T11:44:02.194Z,54.49
2023-04-02T11:45:02.192Z,54.51
2023-04-02T11:46:02.275Z,55.21
2023-04-02T11:47:02.383Z,54.16
2023-04-02T11:48:02.677Z,53.21
2023-04-02T11:49:02.343Z,52.03
2023-04-02T11:50:02.360Z,52.03
2023-04-02T11:51:02.429Z,52.65
2023-04-02T11:52:11.574Z,52.57
2023-04-02T11:53:02.449Z,52.72
2023-04-02T11:54:02.454Z,52.83
2023-04-02T11:55:02.488Z,53.95
2023-04-02T11:56:02.509Z,54.08
2023-04-02T11:57:02.613Z,54.77
2023-04-02T11:58:02.591Z,54.13
2023-04-02T11:59:02.640Z,54.54
2023-04-02T12:00:02.704Z,54.92
2023-04-02T12:01:02.776Z,54.08
2023-04-02T12:02:02.912Z,53.06
2023-04-02T12:03:02.924Z,53.59
2023-04-02T12:04:02.864Z,53.16
2023-04-02T12:05:02.901Z,52.55
2023-04-02T12:06:04.238Z,52.67
2023-04-02T12:07:02.955Z,52.45
2023-04-02T12:08:02.955Z,52.01
2023-04-02T12:09:02.968Z,52.95
2023-04-02T12:10:03.026Z,53.47
2023-04-02T12:11:03.086Z,53.39
2023-04-02T12:12:03.118Z,54.08
2023-04-02T12:13:03.113Z,53.52
2023-04-02T12:14:03.156Z,53.62
2023-04-02T12:15:03.199Z,54.16
2023-04-02T12:16:03.215Z,53.87
2023-04-02T12:17:03.305Z,53.85
2023-04-02T12:18:03.380Z,52.85
2023-04-02T12:19:03.317Z,52.39
2023-04-02T12:20:05.551Z,51.37
2023-04-02T12:21:03.361Z,51.63
2023-04-02T12:22:03.367Z,51.22
2023-04-02T12:23:03.425Z,51.45
2023-04-02T12:24:03.437Z,52.06
2023-04-02T12:25:03.438Z,51.45
2023-04-02T12:26:03.489Z,52.57
2023-04-02T12:27:03.482Z,53.92
2023-04-02T12:28:03.489Z,54.33
2023-04-02T12:29:03.536Z,53.69
2023-04-02T12:30:03.522Z,53.49
2023-04-02T12:31:03.698Z,53.26
2023-04-02T12:32:03.548Z,52.62
2023-04-02T12:33:03.625Z,52.06
2023-04-02T12:34:03.669Z,53.69
2023-04-02T12:35:03.718Z,53.08
2023-04-02T12:36:03.845Z,52.70
2023-04-02T12:37:03.875Z,53.19
2023-04-02T12:38:03.822Z,53.49
2023-04-02T12:39:03.875Z,53.26
2023-04-02T12:40:03.913Z,53.49
2023-04-02T12:41:03.927Z,53.47
2023-04-02T12:42:03.997Z,52.83
2023-04-02T12:43:04.050Z,52.37
2023-04-02T12:44:04.099Z,52.80
2023-04-02T12:45:04.181Z,52.37
2023-04-02T12:46:04.279Z,53.62
2023-04-02T12:47:04.263Z,52.83
2023-04-02T12:48:04.286Z,53.36
2023-04-02T12:49:04.266Z,53.95
2023-04-02T12:50:04.323Z,53.19
2023-04-02T12:51:04.356Z,52.85
2023-04-02T12:52:04.316Z,51.86
2023-04-02T12:53:04.352Z,51.21